• Join FlightAware (Why Join?)
  • Login
  • US Flag 
03:02PM EDT


 

Airport Tracker/Info


-or-


 

Live Flight TrackerFlight Track Log ✈ FIN78 ✈ 24-Jan-2014 ✈ RJBB / KIX - EFHK / HEL

Flight Track Log - Related Links

Times and Time Zones

All times are in EST time to prevent confusion due to time zone crossing. See the FIN78 flight status page for this flight to view local times or setup timezone preferences in your user account.

Time Position Orientation Groundspeed Altitude Reporting Facility
EST Latitude Longitude Course Direction KTS MPH feet Rate Location/Type
10:34PM 37.8077 137.8503 331° Northwest  Level Estimated
10:35PM 37.9140 137.7739 330° Northwest  Level Estimated
10:36PM 38.0202 137.6973 330° Northwest  Level Estimated
10:37PM 38.1264 137.6204 330° Northwest  Level Estimated
10:38PM 38.2326 137.5433 330° Northwest  Level Estimated
10:39PM 38.3386 137.4660 330° Northwest  Level Estimated
10:40PM 38.4447 137.3884 330° Northwest  Level Estimated
10:41PM 38.5507 137.3107 330° Northwest  Level Estimated
10:42PM 38.6566 137.2327 330° Northwest  Level Estimated
10:43PM 38.7625 137.1544 330° Northwest  Level Estimated
10:44PM 38.8683 137.0760 330° Northwest  Level Estimated
10:45PM 38.9741 136.9973 330° Northwest  Level Estimated
10:46PM 39.0798 136.9184 330° Northwest  Level Estimated
10:47PM 39.1855 136.8392 330° Northwest  Level Estimated
10:48PM 39.2911 136.7598 330° Northwest  Level Estimated
10:49PM 39.3967 136.6801 330° Northwest  Level Estimated
10:50PM 39.5022 136.6002 330° Northwest  Level Estimated
10:51PM 39.6077 136.5201 330° Northwest  Level Estimated
10:52PM 39.7131 136.4397 330° Northwest  Level Estimated
10:53PM 39.8184 136.3591 330° Northwest  Level Estimated
10:54PM 39.9237 136.2782 330° Northwest  Level Estimated
10:55PM 40.0289 136.1971 329° Northwest  Level Estimated
10:56PM 40.1341 136.1158 329° Northwest  Level Estimated
10:57PM 40.2392 136.0341 329° Northwest  Level Estimated
10:58PM 40.3443 135.9523 329° Northwest  Level Estimated
10:59PM 40.4493 135.8701 329° Northwest  Level Estimated
11:00PM 40.5542 135.7878 329° Northwest  Level Estimated
11:01PM 40.6591 135.7051 329° Northwest  Level Estimated
11:02PM 40.7639 135.6222 329° Northwest  Level Estimated
11:03PM 40.8687 135.5390 329° Northwest  Level Estimated
11:04PM 40.9734 135.4556 329° Northwest  Level Estimated
11:05PM 41.0781 135.3719 329° Northwest  Level Estimated
11:06PM 41.1827 135.2879 329° Northwest  Level Estimated
11:07PM 41.2872 135.2037 329° Northwest  Level Estimated
11:08PM 41.3916 135.1192 329° Northwest  Level Estimated
11:09PM 41.4960 135.0344 329° Northwest  Level Estimated
11:10PM 41.6004 134.9494 329° Northwest  Level Estimated
11:11PM 41.7047 134.8641 329° Northwest  Level Estimated
11:12PM 41.8089 134.7785 329° Northwest  Level Estimated
11:13PM 41.9130 134.6926 328° Northwest  Level Estimated
11:14PM 42.0171 134.6064 328° Northwest  Level Estimated
11:15PM 42.1211 134.5200 328° Northwest  Level Estimated
11:16PM 42.2251 134.4333 328° Northwest  Level Estimated
11:17PM 42.3290 134.3463 328° Northwest  Level Estimated
11:18PM 42.4328 134.2590 328° Northwest  Level Estimated
11:19PM 42.5366 134.1714 328° Northwest  Level Estimated
11:20PM 42.6403 134.0835 328° Northwest  Level Estimated
11:21PM 42.7439 133.9953 328° Northwest  Level Estimated
11:22PM 42.8474 133.9068 328° Northwest  Level Estimated
11:23PM 42.9509 133.8181 328° Northwest  Level Estimated
11:24PM 43.0543 133.7290 328° Northwest  Level Estimated
11:25PM 43.1577 133.6396 328° Northwest  Level Estimated
11:26PM 43.2610 133.5500 328° Northwest  Level Estimated
11:27PM 43.3642 133.4600 328° Northwest  Level Estimated
11:28PM 43.4673 133.3697 328° Northwest  Level Estimated
11:29PM 43.5704 133.2791 328° Northwest  Level Estimated
11:30PM 43.6734 133.1882 327° Northwest  Level Estimated
11:31PM 43.7763 133.0970 327° Northwest  Level Estimated
11:32PM 43.8792 133.0055 327° Northwest  Level Estimated
11:33PM 43.9819 132.9137 327° Northwest  Level Estimated
11:34PM 44.0846 132.8215 327° Northwest  Level Estimated
11:35PM 44.1873 132.7290 327° Northwest  Level Estimated
11:36PM 44.2898 132.6362 327° Northwest  Level Estimated
11:37PM 44.3923 132.5431 327° Northwest  Level Estimated
11:38PM 44.4947 132.4496 327° Northwest  Level Estimated
11:39PM 44.5970 132.3559 327° Northwest  Level Estimated
11:40PM 44.6993 132.2617 327° Northwest  Level Estimated
11:41PM 44.8014 132.1673 327° Northwest  Level Estimated
11:42PM 44.9035 132.0725 327° Northwest  Level Estimated
11:43PM 45.0055 131.9774 327° Northwest  Level Estimated
11:44PM 45.1075 131.8819 327° Northwest  Level Estimated
11:45PM 45.2093 131.7861 326° Northwest  Level Estimated
11:46PM 45.3111 131.6900 326° Northwest  Level Estimated
11:47PM 45.4128 131.5935 326° Northwest  Level Estimated
11:48PM 45.5144 131.4967 326° Northwest  Level Estimated
11:49PM 45.6159 131.3995 326° Northwest  Level Estimated
11:50PM 45.7174 131.3019 326° Northwest  Level Estimated
11:51PM 45.8187 131.2040 326° Northwest  Level Estimated
11:52PM 45.9200 131.1058 326° Northwest  Level Estimated
11:53PM 46.0212 131.0072 326° Northwest  Level Estimated
11:54PM 46.1223 130.9082 326° Northwest  Level Estimated
11:55PM 46.2234 130.8089 326° Northwest  Level Estimated
11:56PM 46.3243 130.7092 326° Northwest  Level Estimated
11:57PM 46.4252 130.6091 326° Northwest  Level Estimated
11:58PM 46.5259 130.5087 326° Northwest  Level Estimated
11:59PM 46.6266 130.4079 325° Northwest  Level Estimated
12:00AM 46.7272 130.3067 325° Northwest  Level Estimated
12:01AM 46.8277 130.2051 325° Northwest  Level Estimated
12:02AM 46.9281 130.1031 325° Northwest  Level Estimated
12:03AM 47.0284 130.0008 325° Northwest  Level Estimated
12:04AM 47.1286 129.8981 325° Northwest  Level Estimated
12:05AM 47.2288 129.7950 325° Northwest  Level Estimated
12:06AM 47.3288 129.6915 325° Northwest  Level Estimated
12:07AM 47.4288 129.5876 325° Northwest  Level Estimated
12:08AM 47.5286 129.4833 325° Northwest  Level Estimated
12:09AM 47.6284 129.3786 325° Northwest  Level Estimated
12:10AM 47.7280 129.2736 325° Northwest  Level Estimated
12:11AM 47.8276 129.1681 325° Northwest  Level Estimated
12:12AM 47.9271 129.0622 325° Northwest  Level Estimated
12:13AM 48.0264 128.9559 324° Northwest  Level Estimated
12:14AM 48.1257 128.8492 324° Northwest  Level Estimated
12:15AM 48.2249 128.7421 324° Northwest  Level Estimated
12:16AM 48.3240 128.6346 324° Northwest  Level Estimated
12:17AM 48.4229 128.5266 324° Northwest  Level Estimated
12:18AM 48.5218 128.4182 324° Northwest  Level Estimated
12:19AM 48.6206 128.3094 324° Northwest  Level Estimated
12:20AM 48.7192 128.2002 324° Northwest  Level Estimated
12:21AM 48.8178 128.0906 324° Northwest  Level Estimated
12:22AM 48.9162 127.9805 324° Northwest  Level Estimated
12:23AM 49.0146 127.8700 324° Northwest  Level Estimated
12:24AM 49.1129 127.7590 324° Northwest  Level Estimated
12:25AM 49.2110 127.6476 323° Northwest  Level Estimated
12:26AM 49.3090 127.5358 323° Northwest  Level Estimated
12:27AM 49.4069 127.4235 323° Northwest  Level Estimated
12:28AM 49.5048 127.3108 323° Northwest  Level Estimated
12:29AM 49.6025 127.1976 323° Northwest  Level Estimated
12:30AM 49.7001 127.0839 323° Northwest  Level Estimated
12:31AM 49.7975 126.9698 323° Northwest  Level Estimated
12:32AM 49.8949 126.8553 323° Northwest  Level Estimated
12:33AM 49.9922 126.7403 323° Northwest  Level Estimated
12:34AM 50.0893 126.6248 323° Northwest  Level Estimated
12:35AM 50.1863 126.5088 323° Northwest  Level Estimated
12:36AM 50.2832 126.3924 323° Northwest  Level Estimated
12:37AM 50.3801 126.2755 322° Northwest  Level Estimated
12:38AM 50.4767 126.1581 322° Northwest  Level Estimated
12:39AM 50.5733 126.0403 322° Northwest  Level Estimated
12:40AM 50.6697 125.9219 322° Northwest  Level Estimated
12:41AM 50.7660 125.8031 322° Northwest  Level Estimated
12:42AM 50.8623 125.6838 322° Northwest  Level Estimated
12:43AM 50.9583 125.5640 322° Northwest  Level Estimated
12:44AM 51.0543 125.4436 322° Northwest  Level Estimated
12:45AM 51.1501 125.3228 322° Northwest  Level Estimated
12:46AM 51.2458 125.2015 322° Northwest  Level Estimated
12:47AM 51.3414 125.0797 321° Northwest  Level Estimated
12:48AM 51.4368 124.9574 321° Northwest  Level Estimated
12:49AM 51.5322 124.8345 321° Northwest  Level Estimated
12:50AM 51.6273 124.7112 321° Northwest  Level Estimated
12:51AM 51.7224 124.5873 321° Northwest  Level Estimated
12:52AM 51.8173 124.4629 321° Northwest  Level Estimated
12:53AM 51.9121 124.3380 321° Northwest  Level Estimated
12:54AM 52.0068 124.2126 321° Northwest  Level Estimated
12:55AM 52.1013 124.0866 321° Northwest  Level Estimated
12:56AM 52.1958 123.9601 321° Northwest  Level Estimated
12:57AM 52.2900 123.8330 321° Northwest  Level Estimated
12:58AM 52.3841 123.7054 320° Northwest  Level Estimated
12:59AM 52.4781 123.5773 320° Northwest  Level Estimated
01:00AM 52.5720 123.4486 320° Northwest  Level Estimated
01:01AM 52.6657 123.3194 320° Northwest  Level Estimated
01:02AM 52.7593 123.1896 320° Northwest  Level Estimated
01:03AM 52.8527 123.0592 320° Northwest  Level Estimated
01:04AM 52.9460 122.9283 320° Northwest  Level Estimated
01:05AM 53.0391 122.7968 320° Northwest  Level Estimated
01:06AM 53.1321 122.6648 320° Northwest  Level Estimated
01:07AM 53.2249 122.5322 319° Northwest  Level Estimated
01:08AM 53.3176 122.3990 319° Northwest  Level Estimated
01:09AM 53.4102 122.2652 319° Northwest  Level Estimated
01:10AM 53.5026 122.1309 319° Northwest  Level Estimated
01:11AM 53.5948 121.9959 319° Northwest  Level Estimated
01:12AM 53.6870 121.8604 319° Northwest  Level Estimated
01:13AM 53.7789 121.7243 319° Northwest  Level Estimated
01:14AM 53.8707 121.5875 319° Northwest  Level Estimated
01:15AM 53.9623 121.4502 319° Northwest  Level Estimated
01:16AM 54.0538 121.3123 319° Northwest  Level Estimated
01:17AM 54.1451 121.1737 318° Northwest  Level Estimated
01:18AM 54.2363 121.0346 318° Northwest  Level Estimated
01:19AM 54.3273 120.8948 318° Northwest  Level Estimated
01:20AM 54.4181 120.7544 318° Northwest  Level Estimated
01:21AM 54.5088 120.6134 318° Northwest  Level Estimated
01:22AM 54.5993 120.4718 318° Northwest  Level Estimated
01:23AM 54.6896 120.3296 318° Northwest  Level Estimated
01:24AM 54.7798 120.1867 318° Northwest  Level Estimated
01:25AM 54.8698 120.0431 317° Northwest  Level Estimated
01:26AM 54.9596 119.8989 317° Northwest  Level Estimated
01:27AM 55.0493 119.7541 317° Northwest  Level Estimated
01:28AM 55.1388 119.6086 317° Northwest  Level Estimated
01:29AM 55.2281 119.4625 317° Northwest  Level Estimated
01:30AM 55.3172 119.3157 317° Northwest  Level Estimated
01:31AM 55.4062 119.1683 317° Northwest  Level Estimated
01:32AM 55.4950 119.0202 317° Northwest  Level Estimated
01:33AM 55.5836 118.8714 317° Northwest  Level Estimated
01:34AM 55.6720 118.7219 316° Northwest  Level Estimated
01:35AM 55.7602 118.5718 316° Northwest  Level Estimated
01:36AM 55.8483 118.4210 316° Northwest  Level Estimated
01:37AM 55.9362 118.2695 316° Northwest  Level Estimated
01:38AM 56.0238 118.1173 316° Northwest  Level Estimated
01:39AM 56.1114 117.9645 316° Northwest  Level Estimated
01:40AM 56.1987 117.8109 316° Northwest  Level Estimated
01:41AM 56.2858 117.6566 316° Northwest  Level Estimated
01:42AM 56.3727 117.5017 315° West  Level Estimated
01:43AM 56.4594 117.3460 315° West  Level Estimated
01:44AM 56.5460 117.1896 315° West  Level Estimated
01:45AM 56.6323 117.0325 315° West  Level Estimated
01:46AM 56.7184 116.8747 315° West  Level Estimated
01:47AM 56.8044 116.7161 315° West  Level Estimated
01:48AM 56.8901 116.5568 315° West  Level Estimated
01:49AM 56.9757 116.3968 314° West  Level Estimated
01:50AM 57.0610 116.2361 314° West  Level Estimated
01:51AM 57.1461 116.0746 314° West  Level Estimated
01:52AM 57.2310 115.9124 314° West  Level Estimated
01:53AM 57.3157 115.7494 314° West  Level Estimated
01:54AM 57.4002 115.5857 314° West  Level Estimated
01:55AM 57.4845 115.4212 314° West  Level Estimated
01:56AM 57.5685 115.2559 314° West  Level Estimated
01:57AM 57.6524 115.0899 313° West  Level Estimated
01:58AM 57.7360 114.9232 313° West  Level Estimated
02:00AM 57.9151 114.5620 313° West  Level Estimated
02:02AM 58.0683 114.2483 313° West  Level Estimated
02:03AM 58.1508 114.0776 313° West  Level Estimated
02:04AM 58.2331 113.9062 312° West  Level Estimated
02:05AM 58.3152 113.7339 312° West  Level Estimated
02:06AM 58.3970 113.5609 312° West  Level Estimated
02:07AM 58.4785 113.3870 312° West  Level Estimated
02:08AM 58.5599 113.2123 312° West  Level Estimated
02:09AM 58.6410 113.0368 312° West  Level Estimated
02:10AM 58.7219 112.8605 312° West  Level Estimated
02:11AM 58.8025 112.6834 311° West  Level Estimated
02:12AM 58.8829 112.5054 311° West  Level Estimated
02:13AM 58.9630 112.3267 311° West  Level Estimated
02:14AM 59.0429 112.1471 311° West  Level Estimated
02:15AM 59.1201 111.9722 311° West  Level Estimated
02:16AM 59.1971 111.7965 311° West  Level Estimated
02:17AM 59.2738 111.6200 310° West  Level Estimated
02:18AM 59.3503 111.4428 310° West  Level Estimated
02:19AM 59.4265 111.2647 310° West  Level Estimated
02:20AM 59.5025 111.0858 310° West  Level Estimated
02:21AM 59.5783 110.9061 310° West  Level Estimated
02:22AM 59.6538 110.7256 310° West  Level Estimated
02:23AM 59.7291 110.5443 310° West  Level Estimated
02:24AM 59.8041 110.3622 309° West  Level Estimated
02:25AM 59.8788 110.1793 309° West  Level Estimated
02:26AM 59.9533 109.9956 309° West  Level Estimated
02:27AM 60.0276 109.8110 309° West  Level Estimated
02:28AM 60.1016 109.6256 309° West  Level Estimated
02:29AM 60.1753 109.4393 309° West  Level Estimated
02:30AM 60.2488 109.2522 308° West  Level Estimated
02:31AM 60.3220 109.0643 308° West  Level Estimated
02:32AM 60.3949 108.8755 308° West  Level Estimated
02:33AM 60.4675 108.6859 308° West  Level Estimated
02:34AM 60.5399 108.4955 308° West  Level Estimated
02:35AM 60.6121 108.3042 308° West  Level Estimated
02:36AM 60.6839 108.1120 307° West  Level Estimated
02:37AM 60.7555 107.9190 307° West  Level Estimated
02:38AM 60.8268 107.7251 307° West  Level Estimated
02:39AM 60.8978 107.5303 307° West  Level Estimated
02:40AM 60.9685 107.3347 307° West  Level Estimated
02:41AM 61.0390 107.1382 307° West  Level Estimated
02:42AM 61.1091 106.9408 306° West  Level Estimated
02:43AM 61.1790 106.7426 306° West  Level Estimated
02:44AM 61.2486 106.5435 306° West  Level Estimated
02:45AM 61.3178 106.3435 306° West  Level Estimated
02:46AM 61.3868 106.1426 306° West  Level Estimated
02:47AM 61.4555 105.9408 306° West  Level Estimated
02:48AM 61.5239 105.7382 305° West  Level Estimated
02:49AM 61.5920 105.5346 305° West  Level Estimated
02:50AM 61.6598 105.3302 305° West  Level Estimated
02:51AM 61.7273 105.1248 305° West  Level Estimated
02:52AM 61.7944 104.9186 305° West  Level Estimated
02:53AM 61.8613 104.7114 304° West  Level Estimated
02:54AM 61.9278 104.5034 304° West  Level Estimated
02:55AM 61.9941 104.2944 304° West  Level Estimated
02:56AM 62.0600 104.0845 304° West  Level Estimated
02:57AM 62.1256 103.8738 304° West  Level Estimated
02:58AM 62.1909 103.6621 304° West  Level Estimated
02:59AM 62.2558 103.4495 303° West  Level Estimated
03:00AM 62.3204 103.2360 303° West  Level Estimated
03:01AM 62.3847 103.0215 303° West  Level Estimated
03:02AM 62.4487 102.8062 303° West  Level Estimated
03:03AM 62.5123 102.5899 303° West  Level Estimated
03:04AM 62.5756 102.3727 302° West  Level Estimated
03:05AM 62.6386 102.1546 302° West  Level Estimated
03:06AM 62.7012 101.9355 302° West  Level Estimated
03:07AM 62.7635 101.7156 302° West  Level Estimated
03:08AM 62.8254 101.4947 302° West  Level Estimated
03:09AM 62.8870 101.2728 301° West  Level Estimated
03:10AM 62.9482 101.0501 301° West  Level Estimated
03:11AM 63.0091 100.8264 301° West  Level Estimated
03:12AM 63.0696 100.6017 301° West  Level Estimated
03:13AM 63.1298 100.3762 301° West  Level Estimated
03:14AM 63.1896 100.1497 300° West  Level Estimated
03:15AM 63.2491 99.9222 300° West  Level Estimated
03:16AM 63.3081 99.6939 300° West  Level Estimated
03:17AM 63.3669 99.4646 300° West  Level Estimated
03:18AM 63.4252 99.2343 300° West  Level Estimated
03:19AM 63.4832 99.0032 299° West  Level Estimated
03:20AM 63.5408 98.7711 299° West  Level Estimated
03:21AM 63.5980 98.5380 299° West  Level Estimated
03:22AM 63.6548 98.3040 299° West  Level Estimated
03:23AM 63.7113 98.0691 299° West  Level Estimated
03:24AM 63.7674 97.8333 298° West  Level Estimated
03:25AM 63.8231 97.5965 298° West  Level Estimated
03:26AM 63.8784 97.3587 298° West  Level Estimated
03:27AM 63.9333 97.1201 298° West  Level Estimated
03:28AM 63.9878 96.8805 298° West  Level Estimated
03:29AM 64.0419 96.6400 297° West  Level Estimated
03:30AM 64.0956 96.3985 297° West  Level Estimated
03:31AM 64.1489 96.1561 297° West  Level Estimated
03:32AM 64.2019 95.9128 297° West  Level Estimated
03:33AM 64.2544 95.6685 296° West  Level Estimated
03:34AM 64.3065 95.4234 296° West  Level Estimated
03:35AM 64.3582 95.1773 296° West  Level Estimated
03:36AM 64.4094 94.9302 296° West  Level Estimated
03:37AM 64.4603 94.6823 296° West  Level Estimated
03:38AM 64.5107 94.4334 295° West  Level Estimated
03:39AM 64.5608 94.1837 295° West  Level Estimated
03:40AM 64.6104 93.9330 295° West  Level Estimated
03:41AM 64.6595 93.6814 295° West  Level Estimated
03:42AM 64.7083 93.4288 294° West  Level Estimated
03:43AM 64.7566 93.1754 294° West  Level Estimated
03:44AM 64.8045 92.9211 294° West  Level Estimated
03:45AM 64.8519 92.6659 294° West  Level Estimated
03:46AM 64.8989 92.4098 293° West  Level Estimated
03:47AM 64.9455 92.1527 293° West  Level Estimated
03:48AM 64.9916 91.8948 293° West  Level Estimated
03:49AM 65.0372 91.6360 293° West  Level Estimated
03:50AM 65.0825 91.3763 293° West  Level Estimated
03:51AM 65.1272 91.1158 292° West  Level Estimated
03:52AM 65.1715 90.8543 292° West  Level Estimated
03:53AM 65.2154 90.5920 292° West  Level Estimated
03:54AM 65.2588 90.3289 292° West  Level Estimated
03:55AM 65.3018 90.0648 291° West  Level Estimated
03:56AM 65.3442 89.7999 291° West  Level Estimated
03:57AM 65.3862 89.5342 291° West  Level Estimated
03:58AM 65.4278 89.2676 291° West  Level Estimated
03:59AM 65.4688 89.0002 290° West  Level Estimated
04:00AM 65.5095 88.7319 290° West  Level Estimated
04:01AM 65.5496 88.4628 290° West  Level Estimated
04:02AM 65.5892 88.1929 290° West  Level Estimated
04:03AM 65.6284 87.9221 289° West  Level Estimated
04:04AM 65.6671 87.6506 289° West  Level Estimated
04:05AM 65.7053 87.3782 289° West  Level Estimated
04:06AM 65.7430 87.1050 289° West  Level Estimated
04:07AM 65.7802 86.8311 288° West  Level Estimated
04:08AM 65.8169 86.5563 288° West  Level Estimated
04:09AM 65.8532 86.2808 288° West  Level Estimated
04:10AM 65.8889 86.0045 288° West  Level Estimated
04:11AM 65.9241 85.7274 287° West  Level Estimated
04:12AM 65.9589 85.4496 287° West  Level Estimated
04:13AM 65.9931 85.1710 287° West  Level Estimated
04:14AM 66.0269 84.8917 287° West  Level Estimated
04:15AM 66.0601 84.6117 286° West  Level Estimated
04:16AM 66.0928 84.3309 286° West  Level Estimated
04:17AM 66.1250 84.0494 286° West  Level Estimated
04:18AM 66.1567 83.7672 286° West  Level Estimated
04:19AM 66.1879 83.4843 285° West  Level Estimated
04:20AM 66.2186 83.2007 285° West  Level Estimated
04:21AM 66.2487 82.9164 285° West  Level Estimated
04:22AM 66.2783 82.6314 285° West  Level Estimated
04:23AM 66.3074 82.3458 284° West  Level Estimated
04:24AM 66.3360 82.0595 284° West  Level Estimated
04:25AM 66.3640 81.7726 284° West  Level Estimated
04:26AM 66.3915 81.4850 284° West  Level Estimated
04:27AM 66.4185 81.1968 283° West  Level Estimated
04:28AM 66.4450 80.9080 283° West  Level Estimated
04:29AM 66.4709 80.6186 283° West  Level Estimated
04:30AM 66.4963 80.3286 283° West  Level Estimated
04:31AM 66.5211 80.0380 282° West  Level Estimated
04:32AM 66.5454 79.7468 282° West  Level Estimated
04:33AM 66.5692 79.4551 282° West  Level Estimated
04:34AM 66.5924 79.1628 281° West  Level Estimated
04:35AM 66.6151 78.8699 281° West  Level Estimated
04:36AM 66.6372 78.5766 281° West  Level Estimated
04:37AM 66.6588 78.2827 281° West  Level Estimated
04:38AM 66.6798 77.9883 280° West  Level Estimated
04:39AM 66.7003 77.6934 280° West  Level Estimated
04:40AM 66.7203 77.3981 280° West  Level Estimated
04:41AM 66.7396 77.1022 280° West  Level Estimated
04:42AM 66.7585 76.8060 279° West  Level Estimated
04:43AM 66.7767 76.5092 279° West  Level Estimated
04:44AM 66.7944 76.2120 279° West  Level Estimated
04:45AM 66.8116 75.9144 278° West  Level Estimated
04:46AM 66.8282 75.6164 278° West  Level Estimated
04:47AM 66.8442 75.3180 278° West  Level Estimated
04:48AM 66.8597 75.0192 278° West  Level Estimated
04:49AM 66.8746 74.7201 277° West  Level Estimated
04:50AM 66.8889 74.4206 277° West  Level Estimated
04:51AM 66.9027 74.1207 277° West  Level Estimated
04:52AM 66.9159 73.8205 277° West  Level Estimated
04:53AM 66.9285 73.5200 276° West  Level Estimated
04:54AM 66.9406 73.2192 276° West  Level Estimated
04:55AM 66.9521 72.9181 276° West  Level Estimated
04:56AM 66.9630 72.6167 275° West  Level Estimated
04:57AM 66.9734 72.3151 275° West  Level Estimated
04:58AM 66.9831 72.0132 275° West  Level Estimated
04:59AM 66.9924 71.7111 275° West  Level Estimated
05:00AM 67.0010 71.4087 274° West  Level Estimated
05:01AM 67.0091 71.1061 274° West  Level Estimated
05:02AM 67.0165 70.8034 274° West  Level Estimated
05:03AM 67.0235 70.5005 273° West  Level Estimated
05:04AM 67.0298 70.1974 273° West  Level Estimated
05:05AM 67.0356 69.8941 273° West  Level Estimated
05:06AM 67.0407 69.5907 273° West  Level Estimated
05:07AM 67.0453 69.2872 272° West  Level Estimated
05:08AM 67.0494 68.9836 272° West  Level Estimated
05:09AM 67.0528 68.6799 272° West  Level Estimated
05:10AM 67.0557 68.3761 272° West  Level Estimated
05:11AM 67.0580 68.0723 271° West  Level Estimated
05:12AM 67.0597 67.7683 271° West  Level Estimated
05:13AM 67.0608 67.4644 271° West  Level Estimated
05:14AM 67.0614 67.1605 270° West  Level Estimated
05:15AM 67.0614 66.8565 270° West  Level Estimated
05:16AM 67.0608 66.5525 270° West  Level Estimated
05:17AM 67.0596 66.2486 270° West  Level Estimated
05:18AM 67.0578 65.9447 269° West  Level Estimated
05:19AM 67.0555 65.6408 269° West  Level Estimated
05:20AM 67.0526 65.3371 269° West  Level Estimated
05:21AM 67.0491 65.0333 268° West  Level Estimated
05:22AM 67.0450 64.7297 268° West  Level Estimated
05:23AM 67.0404 64.4262 268° West  Level Estimated
05:24AM 67.0351 64.1229 268° West  Level Estimated
05:25AM 67.0293 63.8196 267° West  Level Estimated
05:26AM 67.0230 63.5165 267° West  Level Estimated
05:27AM 67.0160 63.2136 267° West  Level Estimated
05:28AM 67.0085 62.9109 266° West  Level Estimated
05:29AM 67.0004 62.6083 266° West  Level Estimated
05:30AM 66.9917 62.3060 266° West  Level Estimated
05:31AM 66.9825 62.0039 266° West  Level Estimated
05:32AM 66.9726 61.7020 265° West  Level Estimated
05:33AM 66.9622 61.4004 265° West  Level Estimated
05:34AM 66.9512 61.0990 265° West  Level Estimated
05:35AM 66.9397 60.7979 265° West  Level Estimated
05:36AM 66.9276 60.4971 264° West  Level Estimated
05:37AM 66.9149 60.1967 264° West  Level Estimated
05:38AM 66.9017 59.8965 264° West  Level Estimated
05:39AM 66.8879 59.5966 263° West  Level Estimated
05:40AM 66.8735 59.2972 263° West  Level Estimated
05:41AM 66.8585 58.9980 263° West  Level Estimated
05:42AM 66.8430 58.6993 263° West  Level Estimated
05:43AM 66.8270 58.4009 262° West  Level Estimated
05:44AM 66.8103 58.1029 262° West  Level Estimated
05:45AM 66.7931 57.8054 262° West  Level Estimated
05:46AM 66.7754 57.5082 262° West  Level Estimated
05:47AM 66.7571 57.2115 261° West  Level Estimated
05:48AM 66.7382 56.9152 261° West  Level Estimated
05:49AM 66.7188 56.6194 261° West  Level Estimated
05:50AM 66.6988 56.3241 260° West  Level Estimated
05:51AM 66.6783 56.0293 260° West  Level Estimated
05:52AM 66.6572 55.7349 260° West  Level Estimated
05:53AM 66.6356 55.4411 260° West  Level Estimated
05:54AM 66.6134 55.1478 259° West  Level Estimated
05:55AM 66.5907 54.8550 259° West  Level Estimated
05:56AM 66.5675 54.5627 259° West  Level Estimated
05:57AM 66.5436 54.2710 259° West  Level Estimated
05:58AM 66.5193 53.9799 258° West  Level Estimated
05:59AM 66.4944 53.6894 258° West  Level Estimated
06:00AM 66.4690 53.3994 258° West  Level Estimated
06:01AM 66.4430 53.1100 257° West  Level Estimated
06:02AM 66.4165 52.8213 257° West  Level Estimated
06:03AM 66.3895 52.5331 257° West  Level Estimated
06:04AM 66.3620 52.2456 257° West  Level Estimated
06:05AM 66.3339 51.9587 256° West  Level Estimated
06:06AM 66.3053 51.6725 256° West  Level Estimated
06:07AM 66.2761 51.3869 256° West  Level Estimated
06:08AM 66.2465 51.1020 256° West  Level Estimated
06:09AM 66.2163 50.8177 255° West  Level Estimated
06:10AM 66.1856 50.5342 255° West  Level Estimated
06:11AM 66.1544 50.2513 255° West  Level Estimated
06:12AM 66.1226 49.9692 255° West  Level Estimated
06:13AM 66.0904 49.6877 254° West  Level Estimated
06:14AM 66.0576 49.4070 254° West  Level Estimated
06:15AM 66.0243 49.1270 254° West  Level Estimated
06:16AM 65.9906 48.8477 254° West  Level Estimated
06:17AM 65.9563 48.5692 253° West  Level Estimated
06:18AM 65.9215 48.2914 253° West  Level Estimated
06:19AM 65.8862 48.0144 253° West  Level Estimated
06:20AM 65.8504 47.7382 253° West  Level Estimated
06:21AM 65.8142 47.4627 252° West  Level Estimated
06:22AM 65.7774 47.1880 252° West  Level Estimated
06:23AM 65.7402 46.9141 252° West  Level Estimated
06:24AM 65.7024 46.6410 252° West  Level Estimated
06:25AM 65.6642 46.3687 251° West  Level Estimated
06:26AM 65.6255 46.0972 251° West  Level Estimated
06:27AM 65.5863 45.8265 251° West  Level Estimated
06:28AM 65.5466 45.5567 251° West  Level Estimated
06:29AM 65.5064 45.2876 250° West  Level Estimated
06:30AM 65.4658 45.0194 250° West  Level Estimated
06:31AM 65.4247 44.7521 250° West  Level Estimated
06:32AM 65.3831 44.4855 250° West  Level Estimated
06:33AM 65.3410 44.2198 249° West  Level Estimated
06:34AM 65.2985 43.9550 249° West  Level Estimated
06:35AM 65.2556 43.6911 249° West  Level Estimated
06:36AM 65.2121 43.4279 249° West  Level Estimated
06:37AM 65.1682 43.1657 248° West  Level Estimated
06:38AM 65.1239 42.9043 248° West  Level Estimated
06:39AM 65.0791 42.6438 248° West  Level Estimated
06:40AM 65.0338 42.3842 248° West  Level Estimated
06:41AM 64.9881 42.1255 247° West  Level Estimated
06:42AM 64.9420 41.8677 247° West  Level Estimated
06:43AM 64.8954 41.6107 247° West  Level Estimated
06:44AM 64.8484 41.3546 247° West  Level Estimated
06:45AM 64.8009 41.0995 246° West  Level Estimated
06:46AM 64.7530 40.8452 246° West  Level Estimated
06:47AM 64.7047 40.5919 246° West  Level Estimated
06:48AM 64.6559 40.3394 246° West  Level Estimated
06:49AM 64.6067 40.0879 246° West  Level Estimated
06:50AM 64.5571 39.8373 245° Southwest  Level Estimated
06:51AM 64.5070 39.5876 245° Southwest  Level Estimated
06:52AM 64.4565 39.3388 245° Southwest  Level Estimated
06:53AM 64.4056 39.0909 245° Southwest  Level Estimated
06:54AM 64.3543 38.8439 244° Southwest  Level Estimated
06:55AM 64.3027 38.5983 244° Southwest  Level Estimated
06:56AM 64.2507 38.3536 244° Southwest  Level Estimated
06:57AM 64.1982 38.1099 244° Southwest  Level Estimated
06:58AM 64.1453 37.8670 244° Southwest  Level Estimated
06:59AM 64.0921 37.6251 243° Southwest  Level Estimated
07:00AM 64.0384 37.3841 243° Southwest  Level Estimated
07:01AM 63.9844 37.1441 243° Southwest  Level Estimated
07:02AM 63.9299 36.9049 243° Southwest  Level Estimated
07:03AM 63.8751 36.6668 242° Southwest  Level Estimated
07:04AM 63.8199 36.4295 242° Southwest  Level Estimated
07:05AM 63.7642 36.1931 242° Southwest  Level Estimated
07:06AM 63.7082 35.9577 242° Southwest  Level Estimated
07:07AM 63.6518 35.7233 242° Southwest  Level Estimated
07:08AM 63.5951 35.4897 241° Southwest  Level Estimated
07:09AM 63.5379 35.2571 241° Southwest  Level Estimated
07:10AM 63.4804 35.0255 241° Southwest  Level Estimated
07:11AM 63.4225 34.7947 241° Southwest  Level Estimated
07:12AM 63.3642 34.5649 241° Southwest  Level Estimated
07:13AM 63.3056 34.3361 240° Southwest  Level Estimated
07:14AM 63.2466 34.1081 240° Southwest  Level Estimated
07:15AM 63.1872 33.8811 240° Southwest  Level Estimated
07:16AM 63.1275 33.6550 240° Southwest  Level Estimated
07:17AM 63.0668 33.4276 240° Southwest  Level Estimated
07:18AM 63.0058 33.2011 239° Southwest  Level Estimated
07:19AM 62.9444 32.9755 239° Southwest  Level Estimated
07:20AM 62.8826 32.7509 239° Southwest  Level Estimated
07:21AM 62.8204 32.5272 239° Southwest  Level Estimated
07:22AM 62.7579 32.3045 239° Southwest  Level Estimated
07:23AM 62.6951 32.0827 238° Southwest  Level Estimated
07:24AM 62.6319 31.8619 238° Southwest  Level Estimated
07:25AM 62.5684 31.6420 238° Southwest  Level Estimated
07:26AM 62.5045 31.4231 238° Southwest  Level Estimated
07:27AM 62.4403 31.2050 238° Southwest  Level Estimated
07:28AM 62.3757 30.9880 237° Southwest  Level Estimated
07:29AM 62.3108 30.7718 237° Southwest  Level Estimated
07:30AM 62.2456 30.5566 237° Southwest  Level Estimated
07:31AM 62.1800 30.3423 237° Southwest  Level Estimated
07:32AM 62.1141 30.1290 237° Southwest  Level Estimated
07:33AM 62.0479 29.9166 236° Southwest  Level Estimated
07:34AM 61.9814 29.7051 236° Southwest  Level Estimated
07:35AM 61.9145 29.4945 236° Southwest  Level Estimated
07:36AM 61.8473 29.2849 236° Southwest  Level Estimated
07:37AM 61.7798 29.0761 236° Southwest  Level Estimated
07:38AM 61.7120 28.8683 236° Southwest  Level Estimated
07:39AM 61.6439 28.6614 235° Southwest  Level Estimated
07:40AM 61.5754 28.4554 235° Southwest  Level Estimated
07:41AM 61.5067 28.2504 235° Southwest  Level Estimated
07:42AM 61.4376 28.0462 235° Southwest  Level Estimated
07:43AM 61.3683 27.8429 235° Southwest  Level Estimated
07:44AM 61.2986 27.6405 234° Southwest  Level Estimated
07:45AM 61.2286 27.4391 234° Southwest  Level Estimated
07:46AM 61.1584 27.2385 234° Southwest  Level Estimated
07:47AM 61.0878 27.0388 234° Southwest  Level Estimated
07:48AM 61.0170 26.8400 234° Southwest  Level Estimated
07:49AM 60.9458 26.6421 234° Southwest  Level Estimated
07:50AM 60.8744 26.4451 233° Southwest  Level Estimated
07:51AM 60.8027 26.2490 233° Southwest  Level Estimated
07:52AM 60.7307 26.0537 233° Southwest  Level Estimated